sensor_id;sensor_type;location;lat;lon;timestamp;pressure;altitude;pressure_sealevel;temperature;humidity
35121;BME280;21297;52.008;4.576;2023-12-20T00:00:07;45950.19;;;-143.47;91.73
35121;BME280;21297;52.008;4.576;2023-12-20T00:02:52;45926.63;;;-143.47;91.29
35121;BME280;21297;52.008;4.576;2023-12-20T00:05:38;45930.56;;;-143.47;91.48
35121;BME280;21297;52.008;4.576;2023-12-20T00:08:26;45914.81;;;-143.47;91.48
35121;BME280;21297;52.008;4.576;2023-12-20T00:11:12;45867.66;;;-143.47;91.18
35121;BME280;21297;52.008;4.576;2023-12-20T00:13:57;45871.59;;;-143.47;91.27
35121;BME280;21297;52.008;4.576;2023-12-20T00:16:43;46115.25;;;-143.47;92.52
35121;BME280;21297;52.008;4.576;2023-12-20T00:19:29;46299.97;;;-143.47;93.52
35121;BME280;21297;52.008;4.576;2023-12-20T00:22:14;46504.34;;;-143.47;94.86
35121;BME280;21297;52.008;4.576;2023-12-20T00:25:00;46329.44;;;-143.47;93.87
35121;BME280;21297;52.008;4.576;2023-12-20T00:27:46;46119.19;;;-143.47;92.70
35121;BME280;21297;52.008;4.576;2023-12-20T00:30:31;45987.53;;;-143.47;91.74
35121;BME280;21297;52.008;4.576;2023-12-20T00:33:17;45816.59;;;-143.47;90.47
35121;BME280;21297;52.008;4.576;2023-12-20T00:36:03;45779.25;;;-143.47;89.91
35121;BME280;21297;52.008;4.576;2023-12-20T00:38:49;45773.34;;;-143.47;90.15
35121;BME280;21297;52.008;4.576;2023-12-20T00:41:35;45600.47;;;-143.47;88.38
35121;BME280;21297;52.008;4.576;2023-12-20T00:44:21;45594.56;;;-143.47;88.33
35121;BME280;21297;52.008;4.576;2023-12-20T00:47:06;45747.81;;;-143.47;89.39
35121;BME280;21297;52.008;4.576;2023-12-20T00:49:52;45624.03;;;-143.47;88.54
35121;BME280;21297;52.008;4.576;2023-12-20T00:52:38;45453.09;;;-143.47;86.84
35121;BME280;21297;52.008;4.576;2023-12-20T00:55:23;45445.25;;;-143.47;86.48
35121;BME280;21297;52.008;4.576;2023-12-20T00:58:09;45405.94;;;-143.47;85.90
35121;BME280;21297;52.008;4.576;2023-12-20T01:00:54;45413.81;;;-143.47;85.62
35121;BME280;21297;52.008;4.576;2023-12-20T01:03:40;45370.59;;;-143.47;84.66
35121;BME280;21297;52.008;4.576;2023-12-20T01:06:26;45417.75;;;-143.47;85.82
35121;BME280;21297;52.008;4.576;2023-12-20T01:09:11;45348.97;;;-143.47;84.29
35121;BME280;21297;52.008;4.576;2023-12-20T01:11:57;45352.91;;;-143.47;85.03
35121;BME280;21297;52.008;4.576;2023-12-20T01:14:43;45368.63;;;-143.47;84.92
35121;BME280;21297;52.008;4.576;2023-12-20T01:17:28;45431.50;;;-143.47;85.99
35121;BME280;21297;52.008;4.576;2023-12-20T01:20:14;45429.53;;;-143.47;85.79
35121;BME280;21297;52.008;4.576;2023-12-20T01:23:00;45453.09;;;-143.47;86.06
35121;BME280;21297;52.008;4.576;2023-12-20T01:25:46;45476.69;;;-143.47;86.42
35121;BME280;21297;52.008;4.576;2023-12-20T01:28:31;45561.16;;;-143.47;87.75
35121;BME280;21297;52.008;4.576;2023-12-20T01:31:17;45651.53;;;-143.47;88.47
35121;BME280;21297;52.008;4.576;2023-12-20T01:34:02;45569.03;;;-143.47;87.94
35121;BME280;21297;52.008;4.576;2023-12-20T01:36:48;45502.22;;;-143.47;87.20
35121;BME280;21297;52.008;4.576;2023-12-20T01:39:34;45478.63;;;-143.47;86.39
35121;BME280;21297;52.008;4.576;2023-12-20T01:42:19;45500.25;;;-143.47;87.09
35121;BME280;21297;52.008;4.576;2023-12-20T01:45:05;45337.19;;;-143.47;84.47
35121;BME280;21297;52.008;4.576;2023-12-20T01:47:51;45364.69;;;-143.47;84.92
35121;BME280;21297;52.008;4.576;2023-12-20T01:50:37;45356.84;;;-143.47;84.82
35121;BME280;21297;52.008;4.576;2023-12-20T01:53:25;45386.31;;;-143.47;84.92
35121;BME280;21297;52.008;4.576;2023-12-20T01:56:11;45382.38;;;-143.47;84.86
35121;BME280;21297;52.008;4.576;2023-12-20T01:58:57;45396.13;;;-143.47;84.88
35121;BME280;21297;52.008;4.576;2023-12-20T02:01:43;45388.25;;;-143.47;85.46
35121;BME280;21297;52.008;4.576;2023-12-20T02:04:29;45423.63;;;-143.47;85.45
35121;BME280;21297;52.008;4.576;2023-12-20T02:07:15;45480.59;;;-143.47;86.06
35121;BME280;21297;52.008;4.576;2023-12-20T02:10:01;45525.78;;;-143.47;87.44
35121;BME280;21297;52.008;4.576;2023-12-20T02:12:47;45514.00;;;-143.47;86.88
35121;BME280;21297;52.008;4.576;2023-12-20T02:15:33;45366.66;;;-143.47;84.37
35121;BME280;21297;52.008;4.576;2023-12-20T02:18:19;45388.25;;;-143.47;85.23
35121;BME280;21297;52.008;4.576;2023-12-20T02:21:05;45466.84;;;-143.47;86.33
35121;BME280;21297;52.008;4.576;2023-12-20T02:23:51;45480.59;;;-143.47;86.40
35121;BME280;21297;52.008;4.576;2023-12-20T02:26:36;45466.84;;;-143.47;86.51
35121;BME280;21297;52.008;4.576;2023-12-20T02:29:22;45462.94;;;-143.47;86.37
35121;BME280;21297;52.008;4.576;2023-12-20T02:32:08;45498.28;;;-143.47;86.60
35121;BME280;21297;52.008;4.576;2023-12-20T02:34:54;45525.78;;;-143.47;86.85
35121;BME280;21297;52.008;4.576;2023-12-20T02:37:40;45411.84;;;-143.47;85.83
35121;BME280;21297;52.008;4.576;2023-12-20T02:40:26;45464.88;;;-143.47;86.29
35121;BME280;21297;52.008;4.576;2023-12-20T02:43:11;45455.06;;;-143.47;86.62
35121;BME280;21297;52.008;4.576;2023-12-20T02:45:57;45445.25;;;-143.47;86.42
35121;BME280;21297;52.008;4.576;2023-12-20T02:48:42;45537.59;;;-143.47;87.36
35121;BME280;21297;52.008;4.576;2023-12-20T02:51:28;45523.84;;;-143.47;86.89
35121;BME280;21297;52.008;4.576;2023-12-20T02:54:14;45506.16;;;-143.47;86.76
35121;BME280;21297;52.008;4.576;2023-12-20T02:56:59;45580.81;;;-143.47;87.79
35121;BME280;21297;52.008;4.576;2023-12-20T02:59:45;45490.44;;;-143.47;86.67
35121;BME280;21297;52.008;4.576;2023-12-20T03:02:31;45472.75;;;-143.47;86.53
35121;BME280;21297;52.008;4.576;2023-12-20T03:05:16;45451.13;;;-143.47;86.25
35121;BME280;21297;52.008;4.576;2023-12-20T03:08:02;45392.19;;;-143.47;85.52
35121;BME280;21297;52.008;4.576;2023-12-20T03:10:48;45417.75;;;-143.47;85.83
35121;BME280;21297;52.008;4.576;2023-12-20T03:13:34;45403.97;;;-143.47;85.67
35121;BME280;21297;52.008;4.576;2023-12-20T03:16:19;45409.88;;;-143.47;85.60
35121;BME280;21297;52.008;4.576;2023-12-20T03:19:05;45368.63;;;-143.47;84.77
35121;BME280;21297;52.008;4.576;2023-12-20T03:21:51;45370.59;;;-143.47;85.02
35121;BME280;21297;52.008;4.576;2023-12-20T03:24:38;45325.41;;;-143.47;84.49
35121;BME280;21297;52.008;4.576;2023-12-20T03:27:24;45343.09;;;-143.47;84.54
35121;BME280;21297;52.008;4.576;2023-12-20T03:30:10;45364.69;;;-143.47;84.68
35121;BME280;21297;52.008;4.576;2023-12-20T03:32:55;45284.13;;;-143.47;83.57
35121;BME280;21297;52.008;4.576;2023-12-20T03:35:41;45305.75;;;-143.47;83.84
35121;BME280;21297;52.008;4.576;2023-12-20T03:38:27;45278.25;;;-143.47;82.97
35121;BME280;21297;52.008;4.576;2023-12-20T03:41:13;45250.75;;;-143.47;82.82
35121;BME280;21297;52.008;4.576;2023-12-20T03:43:59;45299.84;;;-143.47;83.76
35121;BME280;21297;52.008;4.576;2023-12-20T03:46:44;45295.94;;;-143.47;83.64
35121;BME280;21297;52.008;4.576;2023-12-20T03:49:31;45219.31;;;-143.47;83.04
35121;BME280;21297;52.008;4.576;2023-12-20T03:52:16;45292.00;;;-143.47;83.71
35121;BME280;21297;52.008;4.576;2023-12-20T03:55:02;45329.31;;;-143.47;84.65
35121;BME280;21297;52.008;4.576;2023-12-20T03:57:48;45350.94;;;-143.47;84.54
35121;BME280;21297;52.008;4.576;2023-12-20T04:00:34;45437.38;;;-143.47;85.79
35121;BME280;21297;52.008;4.576;2023-12-20T04:03:20;45396.13;;;-143.47;85.70
35121;BME280;21297;52.008;4.576;2023-12-20T04:06:05;45455.06;;;-143.47;86.35
35121;BME280;21297;52.008;4.576;2023-12-20T04:08:51;45537.59;;;-143.47;87.36
35121;BME280;21297;52.008;4.576;2023-12-20T04:11:37;45563.13;;;-143.47;87.79
35121;BME280;21297;52.008;4.576;2023-12-20T04:14:23;45606.34;;;-143.47;88.28
35121;BME280;21297;52.008;4.576;2023-12-20T04:17:10;45565.09;;;-143.47;88.06
35121;BME280;21297;52.008;4.576;2023-12-20T04:19:55;45565.09;;;-143.47;87.88
35121;BME280;21297;52.008;4.576;2023-12-20T04:22:41;45629.94;;;-143.47;88.54
35121;BME280;21297;52.008;4.576;2023-12-20T04:25:27;45669.22;;;-143.47;88.62
35121;BME280;21297;52.008;4.576;2023-12-20T04:28:13;45620.09;;;-143.47;88.52
35121;BME280;21297;52.008;4.576;2023-12-20T04:30:59;45512.03;;;-143.47;87.34
35121;BME280;21297;52.008;4.576;2023-12-20T04:33:44;45478.63;;;-143.47;86.88
35121;BME280;21297;52.008;4.576;2023-12-20T04:36:30;45510.06;;;-143.47;87.31
35121;BME280;21297;52.008;4.576;2023-12-20T04:39:16;45504.19;;;-143.47;87.49
35121;BME280;21297;52.008;4.576;2023-12-20T04:42:01;45466.84;;;-143.47;86.86
35121;BME280;21297;52.008;4.576;2023-12-20T04:44:47;45429.53;;;-143.47;86.57
35121;BME280;21297;52.008;4.576;2023-12-20T04:47:33;45400.06;;;-143.47;85.89
35121;BME280;21297;52.008;4.576;2023-12-20T04:50:18;45244.84;;;-143.47;84.22
35121;BME280;21297;52.008;4.576;2023-12-20T04:53:05;45350.94;;;-143.47;84.36
35121;BME280;21297;52.008;4.576;2023-12-20T04:55:50;45301.81;;;-143.47;84.52
35121;BME280;21297;52.008;4.576;2023-12-20T04:58:36;45350.94;;;-143.47;84.72
35121;BME280;21297;52.008;4.576;2023-12-20T05:01:22;45376.47;;;-143.47;85.61
35121;BME280;21297;52.008;4.576;2023-12-20T05:04:07;45384.34;;;-143.47;85.25
35121;BME280;21297;52.008;4.576;2023-12-20T05:06:53;45301.81;;;-143.47;84.24
35121;BME280;21297;52.008;4.576;2023-12-20T05:09:39;45350.94;;;-143.47;84.84
35121;BME280;21297;52.008;4.576;2023-12-20T05:12:24;45352.91;;;-143.47;85.03
35121;BME280;21297;52.008;4.576;2023-12-20T05:15:10;45376.47;;;-143.47;85.43
35121;BME280;21297;52.008;4.576;2023-12-20T05:17:56;45390.22;;;-143.47;85.53
35121;BME280;21297;52.008;4.576;2023-12-20T05:20:41;45431.50;;;-143.47;86.21
35121;BME280;21297;52.008;4.576;2023-12-20T05:23:27;45478.63;;;-143.47;86.86
35121;BME280;21297;52.008;4.576;2023-12-20T05:26:13;45502.22;;;-143.47;87.29
35121;BME280;21297;52.008;4.576;2023-12-20T05:28:58;45580.81;;;-143.47;88.22
35121;BME280;21297;52.008;4.576;2023-12-20T05:31:44;45720.31;;;-143.47;89.71
35121;BME280;21297;52.008;4.576;2023-12-20T05:34:31;45757.63;;;-143.47;90.19
35121;BME280;21297;52.008;4.576;2023-12-20T05:37:16;45867.66;;;-143.47;90.93
35121;BME280;21297;52.008;4.576;2023-12-20T05:40:02;45771.41;;;-143.47;89.98
35121;BME280;21297;52.008;4.576;2023-12-20T05:42:48;45712.44;;;-143.47;89.33
35121;BME280;21297;52.008;4.576;2023-12-20T05:45:33;45761.56;;;-143.47;89.99
35121;BME280;21297;52.008;4.576;2023-12-20T05:48:19;45659.41;;;-143.47;89.02
35121;BME280;21297;52.008;4.576;2023-12-20T05:51:05;45514.00;;;-143.47;87.82
35121;BME280;21297;52.008;4.576;2023-12-20T05:53:51;45529.72;;;-143.47;87.49
35121;BME280;21297;52.008;4.576;2023-12-20T05:56:37;45488.47;;;-143.47;87.13
35121;BME280;21297;52.008;4.576;2023-12-20T05:59:22;45484.53;;;-143.47;87.09
35121;BME280;21297;52.008;4.576;2023-12-20T06:02:08;45500.25;;;-143.47;87.26
35121;BME280;21297;52.008;4.576;2023-12-20T06:04:54;45512.03;;;-143.47;87.20
35121;BME280;21297;52.008;4.576;2023-12-20T06:07:40;45488.47;;;-143.47;86.87
35121;BME280;21297;52.008;4.576;2023-12-20T06:10:25;45482.56;;;-143.47;86.50
35121;BME280;21297;52.008;4.576;2023-12-20T06:13:11;45490.44;;;-143.47;87.10
35121;BME280;21297;52.008;4.576;2023-12-20T06:15:58;45482.56;;;-143.47;86.86
35121;BME280;21297;52.008;4.576;2023-12-20T06:18:44;45565.09;;;-143.47;87.79
35121;BME280;21297;52.008;4.576;2023-12-20T06:21:30;45411.84;;;-143.47;86.23
35121;BME280;21297;52.008;4.576;2023-12-20T06:24:15;45378.44;;;-143.47;85.78
35121;BME280;21297;52.008;4.576;2023-12-20T06:27:01;45407.91;;;-143.47;85.83
35121;BME280;21297;52.008;4.576;2023-12-20T06:29:47;45405.94;;;-143.47;85.88
35121;BME280;21297;52.008;4.576;2023-12-20T06:32:33;45384.34;;;-143.47;85.29
35121;BME280;21297;52.008;4.576;2023-12-20T06:35:19;45396.13;;;-143.47;85.82
35121;BME280;21297;52.008;4.576;2023-12-20T06:38:05;45407.91;;;-143.47;85.74
35121;BME280;21297;52.008;4.576;2023-12-20T06:40:51;45402.03;;;-143.47;85.67
35121;BME280;21297;52.008;4.576;2023-12-20T06:43:36;45376.47;;;-143.47;85.61
35121;BME280;21297;52.008;4.576;2023-12-20T06:46:22;45423.63;;;-143.47;86.15
35121;BME280;21297;52.008;4.576;2023-12-20T06:49:08;45523.84;;;-143.47;87.28
35121;BME280;21297;52.008;4.576;2023-12-20T06:51:53;45498.28;;;-143.47;87.23
35121;BME280;21297;52.008;4.576;2023-12-20T06:54:39;45462.94;;;-143.47;86.83
35121;BME280;21297;52.008;4.576;2023-12-20T06:57:24;45478.63;;;-143.47;86.57
35121;BME280;21297;52.008;4.576;2023-12-20T07:00:12;45496.31;;;-143.47;87.20
35121;BME280;21297;52.008;4.576;2023-12-20T07:02:58;45543.47;;;-143.47;87.89
35121;BME280;21297;52.008;4.576;2023-12-20T07:05:44;45484.53;;;-143.47;87.09
35121;BME280;21297;52.008;4.576;2023-12-20T07:08:29;45392.19;;;-143.47;86.13
35121;BME280;21297;52.008;4.576;2023-12-20T07:11:15;45449.16;;;-143.47;86.37
35121;BME280;21297;52.008;4.576;2023-12-20T07:14:01;45407.91;;;-143.47;86.13
35121;BME280;21297;52.008;4.576;2023-12-20T07:16:46;45527.75;;;-143.47;87.54
35121;BME280;21297;52.008;4.576;2023-12-20T07:19:32;45651.53;;;-143.47;89.12
35121;BME280;21297;52.008;4.576;2023-12-20T07:22:18;45765.50;;;-143.47;89.59
35121;BME280;21297;52.008;4.576;2023-12-20T07:25:04;45759.59;;;-143.47;89.74
35121;BME280;21297;52.008;4.576;2023-12-20T07:27:49;45745.84;;;-143.47;89.94
35121;BME280;21297;52.008;4.576;2023-12-20T07:30:35;45901.06;;;-143.47;90.97
35121;BME280;21297;52.008;4.576;2023-12-20T07:33:21;45879.47;;;-143.47;91.05
35121;BME280;21297;52.008;4.576;2023-12-20T07:36:07;45840.16;;;-143.47;90.74
35121;BME280;21297;52.008;4.576;2023-12-20T07:38:53;45914.81;;;-143.47;91.57
35121;BME280;21297;52.008;4.576;2023-12-20T07:41:38;45889.28;;;-143.47;91.11
35121;BME280;21297;52.008;4.576;2023-12-20T07:44:24;45832.31;;;-143.47;90.91
35121;BME280;21297;52.008;4.576;2023-12-20T07:47:10;45887.31;;;-143.47;91.03
35121;BME280;21297;52.008;4.576;2023-12-20T07:49:57;45806.75;;;-143.47;90.54
35121;BME280;21297;52.008;4.576;2023-12-20T07:52:43;45793.00;;;-143.47;90.49
35121;BME280;21297;52.008;4.576;2023-12-20T07:55:28;45745.84;;;-143.47;90.14
35121;BME280;21297;52.008;4.576;2023-12-20T07:58:15;45698.69;;;-143.47;89.27
35121;BME280;21297;52.008;4.576;2023-12-20T08:01:01;45741.91;;;-143.47;89.61
35121;BME280;21297;52.008;4.576;2023-12-20T08:03:48;45637.78;;;-143.47;89.28
35121;BME280;21297;52.008;4.576;2023-12-20T08:06:34;45834.28;;;-143.47;90.70
35121;BME280;21297;52.008;4.576;2023-12-20T08:09:19;45895.19;;;-143.47;91.04
35121;BME280;21297;52.008;4.576;2023-12-20T08:12:05;45796.94;;;-143.47;90.35
35121;BME280;21297;52.008;4.576;2023-12-20T08:14:51;45820.50;;;-143.47;90.72
35121;BME280;21297;52.008;4.576;2023-12-20T08:17:37;45820.50;;;-143.47;90.43
35121;BME280;21297;52.008;4.576;2023-12-20T08:20:22;45779.25;;;-143.47;90.17
35121;BME280;21297;52.008;4.576;2023-12-20T08:23:08;45761.56;;;-143.47;90.04
35121;BME280;21297;52.008;4.576;2023-12-20T08:25:53;45751.75;;;-143.47;89.94
35121;BME280;21297;52.008;4.576;2023-12-20T08:28:39;45789.06;;;-143.47;90.18
35121;BME280;21297;52.008;4.576;2023-12-20T08:31:25;45741.91;;;-143.47;89.87
35121;BME280;21297;52.008;4.576;2023-12-20T08:34:11;45704.59;;;-143.47;89.46
35121;BME280;21297;52.008;4.576;2023-12-20T08:36:58;45757.63;;;-143.47;89.80
35121;BME280;21297;52.008;4.576;2023-12-20T08:39:44;45608.31;;;-143.47;88.77
35121;BME280;21297;52.008;4.576;2023-12-20T08:42:30;45531.69;;;-143.47;87.66
35121;BME280;21297;52.008;4.576;2023-12-20T08:45:17;45553.31;;;-143.47;87.66
35121;BME280;21297;52.008;4.576;2023-12-20T08:48:02;45502.22;;;-143.47;87.29
35121;BME280;21297;52.008;4.576;2023-12-20T08:50:48;45364.69;;;-143.47;85.77
35121;BME280;21297;52.008;4.576;2023-12-20T08:53:35;45427.56;;;-143.47;86.37
35121;BME280;21297;52.008;4.576;2023-12-20T08:56:21;45415.78;;;-143.47;85.83
35121;BME280;21297;52.008;4.576;2023-12-20T08:59:07;45451.13;;;-143.47;86.56
35121;BME280;21297;52.008;4.576;2023-12-20T09:01:52;45470.78;;;-143.47;86.94
35121;BME280;21297;52.008;4.576;2023-12-20T09:04:40;45545.44;;;-143.47;87.75
35121;BME280;21297;52.008;4.576;2023-12-20T09:07:26;45549.38;;;-143.47;87.93
35121;BME280;21297;52.008;4.576;2023-12-20T09:10:12;45494.34;;;-143.47;87.13
35121;BME280;21297;52.008;4.576;2023-12-20T09:12:58;45464.88;;;-143.47;86.62
35121;BME280;21297;52.008;4.576;2023-12-20T09:15:44;45537.59;;;-143.47;87.29
35121;BME280;21297;52.008;4.576;2023-12-20T09:18:29;45421.66;;;-143.47;86.16
35121;BME280;21297;52.008;4.576;2023-12-20T09:21:15;45419.69;;;-143.47;86.37
35121;BME280;21297;52.008;4.576;2023-12-20T09:24:01;45368.63;;;-143.47;85.55
35121;BME280;21297;52.008;4.576;2023-12-20T09:26:46;45449.16;;;-143.47;86.21
35121;BME280;21297;52.008;4.576;2023-12-20T09:29:32;45347.00;;;-143.47;85.23
35121;BME280;21297;52.008;4.576;2023-12-20T09:32:18;45433.47;;;-143.47;86.15
35121;BME280;21297;52.008;4.576;2023-12-20T09:35:05;45376.47;;;-143.47;85.47
35121;BME280;21297;52.008;4.576;2023-12-20T09:37:52;45490.44;;;-143.47;86.65
35121;BME280;21297;52.008;4.576;2023-12-20T09:40:39;45470.78;;;-143.47;86.25
35121;BME280;21297;52.008;4.576;2023-12-20T09:43:26;45488.47;;;-143.47;86.81
35121;BME280;21297;52.008;4.576;2023-12-20T09:46:16;45492.41;;;-143.47;86.59
35121;BME280;21297;52.008;4.576;2023-12-20T09:49:05;45462.94;;;-143.47;86.60
35121;BME280;21297;52.008;4.576;2023-12-20T09:51:53;45417.75;;;-143.47;86.32
35121;BME280;21297;52.008;4.576;2023-12-20T09:54:38;45315.56;;;-143.47;84.93
35121;BME280;21297;52.008;4.576;2023-12-20T09:57:24;45348.97;;;-143.47;84.95
35121;BME280;21297;52.008;4.576;2023-12-20T10:00:10;45392.19;;;-143.47;85.18
35121;BME280;21297;52.008;4.576;2023-12-20T10:02:57;45360.75;;;-143.47;85.36
35121;BME280;21297;52.008;4.576;2023-12-20T10:05:44;45362.72;;;-143.47;85.42
35121;BME280;21297;52.008;4.576;2023-12-20T10:08:30;45303.78;;;-143.47;84.36
35121;BME280;21297;52.008;4.576;2023-12-20T10:11:17;45260.56;;;-143.47;83.54
35121;BME280;21297;52.008;4.576;2023-12-20T10:14:05;45238.97;;;-143.47;83.13
35121;BME280;21297;52.008;4.576;2023-12-20T10:16:51;45250.75;;;-143.47;82.85
35121;BME280;21297;52.008;4.576;2023-12-20T10:19:37;45221.28;;;-143.47;83.13
35121;BME280;21297;52.008;4.576;2023-12-20T10:22:22;45209.50;;;-143.47;82.22
35121;BME280;21297;52.008;4.576;2023-12-20T10:25:08;45140.72;;;-143.47;81.20
35121;BME280;21297;52.008;4.576;2023-12-20T10:28:14;45168.22;;;-143.47;82.04
35121;BME280;21297;52.008;4.576;2023-12-20T10:31:00;45288.06;;;-143.47;83.75
35121;BME280;21297;52.008;4.576;2023-12-20T10:33:45;45201.63;;;-143.47;82.78
35121;BME280;21297;52.008;4.576;2023-12-20T10:36:32;45301.81;;;-143.47;83.63
35121;BME280;21297;52.008;4.576;2023-12-20T10:39:18;45240.91;;;-143.47;83.24
35121;BME280;21297;52.008;4.576;2023-12-20T10:42:05;45292.00;;;-143.47;83.84
35121;BME280;21297;52.008;4.576;2023-12-20T10:44:52;45295.94;;;-143.47;84.26
35121;BME280;21297;52.008;4.576;2023-12-20T10:47:40;45345.03;;;-143.47;84.88
35121;BME280;21297;52.008;4.576;2023-12-20T10:50:27;45384.34;;;-143.47;85.46
35121;BME280;21297;52.008;4.576;2023-12-20T10:53:14;45396.13;;;-143.47;85.28
35121;BME280;21297;52.008;4.576;2023-12-20T10:56:02;45439.34;;;-143.47;85.88
35121;BME280;21297;52.008;4.576;2023-12-20T10:58:48;45398.09;;;-143.47;85.24
35121;BME280;21297;52.008;4.576;2023-12-20T11:01:35;45366.66;;;-143.47;85.39
35121;BME280;21297;52.008;4.576;2023-12-20T11:04:37;45356.84;;;-143.47;85.35
35121;BME280;21297;52.008;4.576;2023-12-20T11:07:37;45390.22;;;-143.47;85.51
35121;BME280;21297;52.008;4.576;2023-12-20T11:10:31;45370.59;;;-143.47;84.92
35121;BME280;21297;52.008;4.576;2023-12-20T11:13:21;45415.78;;;-143.47;85.42
35121;BME280;21297;52.008;4.576;2023-12-20T11:16:08;45370.59;;;-143.47;84.84
35121;BME280;21297;52.008;4.576;2023-12-20T11:18:54;45455.06;;;-143.47;86.39
35121;BME280;21297;52.008;4.576;2023-12-20T11:21:40;45364.69;;;-143.47;85.28
35121;BME280;21297;52.008;4.576;2023-12-20T11:24:26;45362.72;;;-143.47;85.37
35121;BME280;21297;52.008;4.576;2023-12-20T11:27:15;45453.09;;;-143.47;86.61
35121;BME280;21297;52.008;4.576;2023-12-20T11:30:03;45466.84;;;-143.47;86.60
35121;BME280;21297;52.008;4.576;2023-12-20T11:32:51;45303.78;;;-143.47;84.39
35121;BME280;21297;52.008;4.576;2023-12-20T11:35:39;45274.31;;;-143.47;83.84
35121;BME280;21297;52.008;4.576;2023-12-20T11:38:25;45421.66;;;-143.47;85.52
35121;BME280;21297;52.008;4.576;2023-12-20T11:41:11;45307.72;;;-143.47;84.29
35121;BME280;21297;52.008;4.576;2023-12-20T11:43:56;45348.97;;;-143.47;84.66
35121;BME280;21297;52.008;4.576;2023-12-20T11:46:42;45331.28;;;-143.47;84.08
35121;BME280;21297;52.008;4.576;2023-12-20T11:49:28;45292.00;;;-143.47;83.99
35121;BME280;21297;52.008;4.576;2023-12-20T11:52:16;45278.25;;;-143.47;83.87
35121;BME280;21297;52.008;4.576;2023-12-20T11:55:02;45309.69;;;-143.47;84.24
35121;BME280;21297;52.008;4.576;2023-12-20T11:57:50;45321.47;;;-143.47;84.58
35121;BME280;21297;52.008;4.576;2023-12-20T12:00:36;45309.69;;;-143.47;84.40
35121;BME280;21297;52.008;4.576;2023-12-20T12:03:22;45348.97;;;-143.47;84.60
35121;BME280;21297;52.008;4.576;2023-12-20T12:06:09;45356.84;;;-143.47;84.79
35121;BME280;21297;52.008;4.576;2023-12-20T12:08:54;45290.03;;;-143.47;83.72
35121;BME280;21297;52.008;4.576;2023-12-20T12:11:41;45270.38;;;-143.47;83.98
35121;BME280;21297;52.008;4.576;2023-12-20T12:14:27;45343.09;;;-143.47;84.52
35121;BME280;21297;52.008;4.576;2023-12-20T12:17:13;45225.19;;;-143.47;83.08
35121;BME280;21297;52.008;4.576;2023-12-20T12:20:06;45221.28;;;-143.47;82.69
35121;BME280;21297;52.008;4.576;2023-12-20T12:23:05;45292.00;;;-143.47;83.80
35121;BME280;21297;52.008;4.576;2023-12-20T12:25:52;45288.06;;;-143.47;83.74
35121;BME280;21297;52.008;4.576;2023-12-20T12:28:40;45235.03;;;-143.47;82.99
35121;BME280;21297;52.008;4.576;2023-12-20T12:31:27;45187.88;;;-143.47;82.06
35121;BME280;21297;52.008;4.576;2023-12-20T12:34:12;45115.19;;;-143.47;80.89
35121;BME280;21297;52.008;4.576;2023-12-20T12:36:58;45125.00;;;-143.47;80.99
35121;BME280;21297;52.008;4.576;2023-12-20T12:39:46;45130.91;;;-143.47;80.53
35121;BME280;21297;52.008;4.576;2023-12-20T12:42:32;45087.69;;;-143.47;79.86
35121;BME280;21297;52.008;4.576;2023-12-20T12:45:17;45113.22;;;-143.47;80.22
35121;BME280;21297;52.008;4.576;2023-12-20T12:48:03;45199.66;;;-143.47;82.32
35121;BME280;21297;52.008;4.576;2023-12-20T12:50:49;45152.50;;;-143.47;80.43
35121;BME280;21297;52.008;4.576;2023-12-20T12:53:37;45146.63;;;-143.47;81.86
35121;BME280;21297;52.008;4.576;2023-12-20T12:56:23;45266.47;;;-143.47;83.59
35121;BME280;21297;52.008;4.576;2023-12-20T12:59:08;45293.97;;;-143.47;83.69
35121;BME280;21297;52.008;4.576;2023-12-20T13:01:54;45325.41;;;-143.47;84.26
35121;BME280;21297;52.008;4.576;2023-12-20T13:04:41;45392.19;;;-143.47;85.33
35121;BME280;21297;52.008;4.576;2023-12-20T13:07:26;45290.03;;;-143.47;84.49
35121;BME280;21297;52.008;4.576;2023-12-20T13:10:12;45301.81;;;-143.47;84.38
35121;BME280;21297;52.008;4.576;2023-12-20T13:12:58;45400.06;;;-143.47;85.50
35121;BME280;21297;52.008;4.576;2023-12-20T13:15:44;45476.69;;;-143.47;86.61
35121;BME280;21297;52.008;4.576;2023-12-20T13:18:36;45574.91;;;-143.47;87.65
35121;BME280;21297;52.008;4.576;2023-12-20T13:21:21;45539.53;;;-143.47;87.42
35121;BME280;21297;52.008;4.576;2023-12-20T13:24:07;45724.25;;;-143.47;89.05
35121;BME280;21297;52.008;4.576;2023-12-20T13:26:53;45535.63;;;-143.47;87.43
35121;BME280;21297;52.008;4.576;2023-12-20T13:29:38;45704.59;;;-143.47;89.19
35121;BME280;21297;52.008;4.576;2023-12-20T13:32:24;45608.31;;;-143.47;88.23
35121;BME280;21297;52.008;4.576;2023-12-20T13:35:10;45671.19;;;-143.47;88.58
35121;BME280;21297;52.008;4.576;2023-12-20T13:37:55;45629.94;;;-143.47;88.28
35121;BME280;21297;52.008;4.576;2023-12-20T13:40:41;45586.69;;;-143.47;87.80
35121;BME280;21297;52.008;4.576;2023-12-20T13:43:27;45677.09;;;-143.47;89.12
35121;BME280;21297;52.008;4.576;2023-12-20T13:46:13;45871.59;;;-143.47;90.26
35121;BME280;21297;52.008;4.576;2023-12-20T13:48:59;45838.19;;;-143.47;90.14
35121;BME280;21297;52.008;4.576;2023-12-20T13:51:45;45851.94;;;-143.47;90.57
35121;BME280;21297;52.008;4.576;2023-12-20T13:54:31;45989.50;;;-143.47;91.22
35121;BME280;21297;52.008;4.576;2023-12-20T13:57:17;45922.69;;;-143.47;90.83
35121;BME280;21297;52.008;4.576;2023-12-20T14:00:04;45989.50;;;-143.47;91.52
35121;BME280;21297;52.008;4.576;2023-12-20T14:02:50;45960.03;;;-143.47;91.22
35121;BME280;21297;52.008;4.576;2023-12-20T14:05:36;45879.47;;;-143.47;90.94
35121;BME280;21297;52.008;4.576;2023-12-20T14:08:22;46028.78;;;-143.47;91.73
35121;BME280;21297;52.008;4.576;2023-12-20T14:11:08;46091.69;;;-143.47;92.12
35121;BME280;21297;52.008;4.576;2023-12-20T14:13:54;46199.75;;;-143.47;92.56
35121;BME280;21297;52.008;4.576;2023-12-20T14:16:43;46461.13;;;-143.47;94.09